Terminal Aerodrome Forecast
Issued by NWS

Home | Current Version | Previous Version | Text Only | Print | Product List | Glossary On
Versions: 1 2 3 4 5 6 7 8 9 10 11 12 13 14 15 16
000
FTUS42 KKEY 240902 AAA
TAFMTH
TAF AMD
KMTH 240902Z 2409/2506 20010G17KT P6SM FEW018 SCT200
     FM242100 20013G20KT 5SM -SHRA VCTS SCT015 BKN050 BKN100CB
      PROB30 2500/2506 24018G27KT 2SM TSRA BKN015CB OVC030=

USA.gov is the U.S. government's official web portal to all federal, state and local government web resources and services.